Decoded Metar for LFMH (ST.-ETIENNE in FRANCE) (IATA:EBU) | Meteo·Mobile Aviation Weather
aviador You're here:

LFMH Decoded Metar

ST.-ETIENNE in FRANCE
Report Time2019-10-19 21:30:00
UTC Time2019-10-19 21:49:47
Flight Rules vfr VFR
Wind190° at 10 kt
W.Decomp.*RWY 18: 9.9 kt HW 1.6 kt RCW
Visibility9999 m
Phenomena:N/A
Clouds:N/A
Expected CloudBase > 2,400 ft AGL from Temp-Dew spread
CeilingNone
Temp18°C (ISA +6)
Dew Point12°C (68% RH)
AAT15.0°C
QNH1006 hPa
Density Alt2,408 ft
Elevation1,319 ft
Report Wrong Elevation
Raw Report
LFMH 192130Z AUTO 19010KT 150V210 CAVOK 18/12 Q1006=

Extra information for LFMH:More info

Metar Taf Metar & Taf Last 4 Metars F.Rules Stats Wind Profile Meteogram Temp Stats Airport Information Weather charts Add Link Nearby VenuesMetar ALERT Operation Metar Decoded Social comments